Time;durP1;ratioP1;P1;durP2;ratioP2;P2;SDS_P1;SDS_P2;PMS_P1;PMS_P2;Temp;Humidity;BMP_temperature;BMP_pressure;BME280_temperature;BME280_humidity;BME280_pressure;Samples;Min_cycle;Max_cycle;Signal;HPM_P1;HPM_P2
2021/08/19 00:00:55;;;;;;;;;;;;;;;16.73;72.45;99694.39;1653100;85;21102;-79
2021/08/19 00:03:22;;;;;;;;;;;;;;;16.78;72.64;99693.77;1637031;85;20262;-78
2021/08/19 00:05:48;;;;;;;;;;;;;;;16.76;72.52;99695.30;1644823;85;20200;-78
2021/08/19 00:08:14;;;;;;;;;;;;;;;16.78;72.70;99685.77;1644904;85;20143;-77
2021/08/19 00:10:39;;;;;;;;;;;;;;;16.78;72.95;99687.94;1662517;85;20201;-77
2021/08/19 00:13:05;;;;;;;;;;;;;;;16.80;72.81;99685.88;1673094;85;21101;-77
2021/08/19 00:15:30;;;;;;;;;;;;;;;16.86;72.85;99682.41;1676134;85;20910;-77
2021/08/19 00:17:58;;;;;;;;;;;;;;;16.88;72.98;99677.38;1679369;83;20461;-77
2021/08/19 00:20:23;;;;;;;;;;;;;;;16.94;72.81;99679.22;1672002;83;20213;-78
2021/08/19 00:22:51;;;;;;;;;;;;;;;16.91;72.90;99684.97;1675807;84;20197;-76
2021/08/19 00:25:16;;;;;;;;;;;;;;;16.92;73.02;99687.92;1674305;83;21174;-77
2021/08/19 00:27:44;;;;;;;;;;;;;;;16.86;73.48;99687.73;1673149;84;20186;-76
2021/08/19 00:30:10;;;;;;;;;;;;;;;16.83;73.64;99683.31;1652117;85;20164;-76
2021/08/19 00:32:35;;;;;;;;;;;;;;;16.78;73.95;99685.27;1679377;83;20139;-76
2021/08/19 00:35:02;;;;;;;;;;;;;;;16.73;74.33;99686.91;1677763;84;20525;-76
2021/08/19 00:37:31;;;;;;;;;;;;;;;16.72;74.42;99688.77;1674750;83;21146;-76
2021/08/19 00:39:57;;;;;;;;;;;;;;;16.72;74.71;99684.77;1675856;85;20474;-76
2021/08/19 00:42:22;;;;;;;;;;;;;;;16.68;75.00;99689.67;1674586;85;20144;-79
2021/08/19 00:44:50;;;;;;;;;;;;;;;16.51;75.50;99695.14;1674705;83;20177;-76
2021/08/19 00:47:15;;;;;;;;;;;;;;;16.32;76.64;99696.79;1676822;85;20216;-80
2021/08/19 00:49:41;;;;;;;;;;;;;;;16.39;76.50;99695.45;1678150;83;21153;-76
2021/08/19 00:52:08;;;;;;;;;;;;;;;16.47;76.48;99689.41;1677173;84;20136;-78
2021/08/19 00:54:36;;;;;;;;;;;;;;;16.51;76.44;99690.64;1676954;85;20208;-76
2021/08/19 00:57:05;;;;;;;;;;;;;;;16.56;76.30;99686.52;1672164;83;20191;-76
2021/08/19 00:59:31;;;;;;;;;;;;;;;16.61;76.33;99690.71;1672681;83;20475;-76
2021/08/19 01:01:58;;;;;;;;;;;;;;;16.54;76.45;99692.58;1677890;83;21112;-76
2021/08/19 01:04:24;;;;;;;;;;;;;;;16.48;76.86;99688.39;1672363;83;20250;-74
2021/08/19 01:06:50;;;;;;;;;;;;;;;16.54;76.74;99684.59;1677524;85;20138;-78
2021/08/19 01:09:16;;;;;;;;;;;;;;;16.53;77.10;99686.94;1675711;83;20141;-76
2021/08/19 01:11:43;;;;;;;;;;;;;;;16.57;77.09;99691.64;1680134;84;20210;-77
2021/08/19 01:14:10;;;;;;;;;;;;;;;16.54;77.17;99684.59;1682016;83;21913;-76
2021/08/19 01:16:37;;;;;;;;;;;;;;;16.61;77.13;99686.71;1677557;84;20132;-76
2021/08/19 01:19:03;;;;;;;;;;;;;;;16.56;77.43;99687.86;1674017;84;20154;-76
2021/08/19 01:21:28;;;;;;;;;;;;;;;16.60;77.32;99681.91;1682311;83;20143;-77
2021/08/19 01:23:54;;;;;;;;;;;;;;;16.65;77.25;99692.75;1684000;83;20150;-76
2021/08/19 01:26:23;;;;;;;;;;;;;;;16.70;77.29;99685.47;1680709;83;20588;-76
2021/08/19 01:28:49;;;;;;;;;;;;;;;16.72;77.39;99686.59;1677898;84;20234;-76
2021/08/19 01:31:16;;;;;;;;;;;;;;;16.71;77.40;99687.12;1682603;84;20132;-78
2021/08/19 01:33:42;;;;;;;;;;;;;;;16.55;78.11;99695.56;1677786;84;20581;-77
2021/08/19 01:36:09;;;;;;;;;;;;;;;16.60;77.92;99693.09;1653585;84;20455;-79
2021/08/19 01:38:35;;;;;;;;;;;;;;;16.64;78.01;99692.47;1679056;84;21395;-77
2021/08/19 01:41:02;;;;;;;;;;;;;;;16.68;77.82;99683.02;1679914;83;20688;-76
2021/08/19 01:43:30;;;;;;;;;;;;;;;16.65;78.25;99693.28;1677668;84;20136;-76
2021/08/19 01:46:01;;;;;;;;;;;;;;;16.70;78.21;99688.13;1680195;84;21406;-75
2021/08/19 01:48:26;;;;;;;;;;;;;;;16.73;78.00;99685.05;1679885;83;20183;-76
2021/08/19 01:50:53;;;;;;;;;;;;;;;;;;1652169;84;21182;-76
2021/08/19 01:53:19;;;;;;;;;;;;;;;16.65;78.41;99682.61;1680452;83;20222;-76
2021/08/19 01:55:45;;;;;;;;;;;;;;;16.69;78.36;99683.84;1682123;83;20162;-76
2021/08/19 01:58:11;;;;;;;;;;;;;;;16.66;78.42;99685.59;1662187;85;20243;-76
2021/08/19 02:00:36;;;;;;;;;;;;;;;16.66;78.57;99692.27;1678583;83;20198;-76
2021/08/19 02:03:03;;;;;;;;;;;;;;;16.64;78.64;99688.47;1683527;84;21083;-76
2021/08/19 02:05:29;;;;;;;;;;;;;;;16.60;78.81;99684.57;1679707;83;20140;-76
2021/08/19 02:07:55;;;;;;;;;;;;;;;16.59;79.12;99686.11;1675325;84;20256;-76
2021/08/19 02:10:22;;;;;;;;;;;;;;;16.51;79.61;99682.66;1681422;84;20720;-76
2021/08/19 02:12:48;;;;;;;;;;;;;;;16.48;79.91;99690.22;1674354;84;20266;-76
2021/08/19 02:15:14;;;;;;;;;;;;;;;16.47;80.02;99689.41;1676120;83;21882;-76
2021/08/19 02:17:40;;;;;;;;;;;;;;;16.46;80.07;99690.42;1675792;84;20207;-76
2021/08/19 02:20:06;;;;;;;;;;;;;;;16.45;80.24;99692.80;1654954;84;20147;-76
2021/08/19 02:22:34;;;;;;;;;;;;;;;16.37;80.71;99694.84;1675105;83;20760;-76
2021/08/19 02:25:00;;;;;;;;;;;;;;;16.28;81.17;99692.88;1677473;84;20126;-77
2021/08/19 02:27:26;;;;;;;;;;;;;;;16.29;81.07;99695.87;1651732;84;21088;-76
2021/08/19 02:29:52;;;;;;;;;;;;;;;16.29;81.35;99692.68;1675861;85;20150;-77
2021/08/19 02:32:19;;;;;;;;;;;;;;;16.32;81.29;99694.13;1676826;84;20228;-79
2021/08/19 02:34:45;;;;;;;;;;;;;;;16.33;81.39;99695.78;1675825;85;20273;-78
2021/08/19 02:37:10;;;;;;;;;;;;;;;16.35;81.30;99696.38;1676718;84;20241;-78
2021/08/19 02:39:36;;;;;;;;;;;;;;;16.38;81.18;99698.64;1672815;85;20700;-77
2021/08/19 02:42:03;;;;;;;;;;;;;;;16.24;81.42;99688.48;1675084;84;20594;-77
2021/08/19 02:44:29;;;;;;;;;;;;;;;16.22;81.85;99693.70;1674070;84;20219;-78
2021/08/19 02:46:54;;;;;;;;;;;;;;;16.24;81.81;99693.00;1674304;84;20148;-78
2021/08/19 02:49:20;;;;;;;;;;;;;;;16.14;82.18;99692.90;1676330;85;20164;-77
2021/08/19 02:51:45;;;;;;;;;;;;;;;16.14;82.26;99695.56;1671966;84;21928;-77
2021/08/19 02:54:12;;;;;;;;;;;;;;;16.12;82.33;99692.26;1674588;85;20147;-77
2021/08/19 02:56:40;;;;;;;;;;;;;;;16.15;82.47;99689.19;1673189;84;20188;-80
2021/08/19 02:59:05;;;;;;;;;;;;;;;16.17;82.29;99690.84;1672485;85;20137;-78
2021/08/19 03:01:31;;;;;;;;;;;;;;;16.14;82.37;99695.56;1675699;85;20225;-77
2021/08/19 03:03:57;;;;;;;;;;;;;;;16.11;82.58;99695.13;1672683;84;21963;-78
2021/08/19 03:06:22;;;;;;;;;;;;;;;16.01;83.00;99690.21;1678512;84;20275;-79
2021/08/19 03:08:50;;;;;;;;;;;;;;;16.05;82.74;99691.45;1672274;84;20173;-77
2021/08/19 03:11:17;;;;;;;;;;;;;;;15.99;83.30;99684.28;1677058;85;20484;-77
2021/08/19 03:13:42;;;;;;;;;;;;;;;15.92;83.53;99691.42;1678999;83;20161;-79
2021/08/19 03:16:08;;;;;;;;;;;;;;;15.90;83.65;99694.81;1676274;84;21094;-78
2021/08/19 03:18:34;;;;;;;;;;;;;;;15.86;83.98;99694.89;1675114;85;20146;-78
2021/08/19 03:21:01;;;;;;;;;;;;;;;15.79;84.41;99695.70;1675771;83;20477;-78
2021/08/19 03:23:26;;;;;;;;;;;;;;;15.74;84.59;99703.45;1675282;84;20913;-78
2021/08/19 03:25:54;;;;;;;;;;;;;;;15.78;84.55;99702.06;1677318;84;20123;-78
2021/08/19 03:28:23;;;;;;;;;;;;;;;15.81;84.61;99701.34;1674438;84;21191;-79
2021/08/19 03:30:51;;;;;;;;;;;;;;;15.78;84.67;99702.06;1679043;83;20164;-79
2021/08/19 03:33:19;;;;;;;;;;;;;;;15.83;84.54;99707.28;1676282;85;20204;-78
2021/08/19 03:35:45;;;;;;;;;;;;;;;15.80;84.49;99703.20;1677225;84;20191;-78
2021/08/19 03:38:13;;;;;;;;;;;;;;;15.79;84.76;99706.34;1674008;84;20152;-78
2021/08/19 03:40:39;;;;;;;;;;;;;;;15.85;84.56;99697.23;1678628;84;21093;-78
2021/08/19 03:43:06;;;;;;;;;;;;;;;15.79;84.60;99694.37;1662765;85;20317;-78
2021/08/19 03:45:32;;;;;;;;;;;;;;;15.85;84.75;99698.56;1670811;85;20195;-79
2021/08/19 03:47:59;;;;;;;;;;;;;;;15.81;84.81;99692.84;1677811;83;20158;-78
2021/08/19 03:50:24;;;;;;;;;;;;;;;15.82;84.78;99690.98;1679280;85;20187;-78
2021/08/19 03:52:51;;;;;;;;;;;;;;;15.83;84.68;99689.97;1670640;85;21048;-78
2021/08/19 03:55:17;;;;;;;;;;;;;;;15.84;84.91;99692.43;1681898;84;20223;-80
2021/08/19 03:57:43;;;;;;;;;;;;;;;15.76;84.86;99690.75;1675989;84;20170;-78
2021/08/19 04:00:09;;;;;;;;;;;;;;;15.82;85.11;99689.65;1672965;83;20733;-80
2021/08/19 04:02:36;;;;;;;;;;;;;;;15.77;85.08;99691.09;1674739;83;20235;-79
2021/08/19 04:05:01;;;;;;;;;;;;;;;15.74;85.36;99691.47;1678583;84;21196;-78
2021/08/19 04:07:29;;;;;;;;;;;;;;;15.85;85.22;99690.09;1672133;84;20171;-79
2021/08/19 04:09:54;;;;;;;;;;;;;;;15.85;85.18;99699.41;1679864;85;20170;-79
2021/08/19 04:12:20;;;;;;;;;;;;;;;15.85;85.04;99698.08;1677083;84;20219;-77
2021/08/19 04:14:46;;;;;;;;;;;;;;;15.83;85.36;99695.30;1679665;84;20217;-78
2021/08/19 04:17:13;;;;;;;;;;;;;;;15.77;85.62;99689.77;1681007;84;21111;-78
2021/08/19 04:19:38;;;;;;;;;;;;;;;15.81;85.66;99685.37;1679599;84;20165;-80
2021/08/19 04:22:04;;;;;;;;;;;;;;;15.88;85.55;99687.52;1683286;84;20142;-78
2021/08/19 04:24:31;;;;;;;;;;;;;;;15.86;85.47;99691.71;1680326;83;20795;-78
2021/08/19 04:26:57;;;;;;;;;;;;;;;15.90;85.34;99690.81;1685934;83;20191;-80
2021/08/19 04:29:22;;;;;;;;;;;;;;;15.94;85.29;99696.02;1659553;84;22617;-80
2021/08/19 04:31:48;;;;;;;;;;;;;;;15.96;85.29;99698.80;1681429;83;20860;-79
2021/08/19 04:34:13;;;;;;;;;;;;;;;15.96;85.56;99700.66;1681518;83;20146;-77
2021/08/19 04:36:39;;;;;;;;;;;;;;;15.92;85.54;99698.08;1653459;85;20699;-76
2021/08/19 04:39:05;;;;;;;;;;;;;;;15.90;85.98;99696.14;1684258;84;20457;-80
2021/08/19 04:41:31;;;;;;;;;;;;;;;15.98;85.78;99689.28;1679278;83;21093;-77
2021/08/19 04:43:58;;;;;;;;;;;;;;;16.03;85.51;99686.01;1677123;84;20170;-77
2021/08/19 04:46:23;;;;;;;;;;;;;;;16.10;85.30;99687.66;1680802;83;20512;-77
2021/08/19 04:48:50;;;;;;;;;;;;;;;16.17;85.01;99690.31;1684124;84;20183;-77
2021/08/19 04:51:16;;;;;;;;;;;;;;;16.20;84.92;99682.44;1681189;84;20105;-77
2021/08/19 04:53:42;;;;;;;;;;;;;;;16.12;85.31;99682.94;1677260;84;21063;-76
2021/08/19 04:56:08;;;;;;;;;;;;;;;16.30;84.90;99683.67;1681728;84;20835;-77
2021/08/19 04:58:33;;;;;;;;;;;;;;;16.36;84.41;99674.54;1680422;83;20159;-79
2021/08/19 05:01:01;;;;;;;;;;;;;;;16.37;84.31;99673.00;1682845;83;20471;-79
2021/08/19 05:03:26;;;;;;;;;;;;;;;16.48;84.23;99676.89;1681849;83;20465;-81
2021/08/19 05:05:52;;;;;;;;;;;;;;;16.46;83.88;99677.09;1673429;84;21240;-80
2021/08/19 05:08:21;;;;;;;;;;;;;;;16.48;83.83;99683.06;1681525;83;20977;-78
2021/08/19 05:10:46;;;;;;;;;;;;;;;16.42;83.98;99687.88;1684296;83;20176;-78
2021/08/19 05:13:12;;;;;;;;;;;;;;;16.37;84.43;99683.66;1676470;84;20447;-78
2021/08/19 05:15:38;;;;;;;;;;;;;;;16.40;84.51;99685.92;1679994;83;20429;-79
2021/08/19 05:18:03;;;;;;;;;;;;;;;16.32;85.10;99691.46;1678006;84;22040;-78
2021/08/19 05:20:30;;;;;;;;;;;;;;;16.38;84.97;99698.64;1680260;84;20138;-78
2021/08/19 05:22:57;;;;;;;;;;;;;;;16.29;85.36;99698.53;1684098;83;20134;-79
2021/08/19 05:25:22;;;;;;;;;;;;;;;16.35;85.33;99697.72;1681452;83;20136;-79
2021/08/19 05:27:48;;;;;;;;;;;;;;;16.27;85.96;99698.73;1679705;84;20185;-78
2021/08/19 05:30:13;;;;;;;;;;;;;;;16.33;85.93;99701.11;1680258;83;21303;-79
2021/08/19 05:32:41;;;;;;;;;;;;;;;16.39;85.47;99696.29;1679677;83;20448;-81
2021/08/19 05:35:07;;;;;;;;;;;;;;;16.48;85.45;99699.05;1679775;83;20234;-79
2021/08/19 05:37:34;;;;;;;;;;;;;;;16.64;85.23;99695.63;1674458;83;20258;-79
2021/08/19 05:40:00;;;;;;;;;;;;;;;16.75;84.65;99692.35;1682677;83;20155;-78
2021/08/19 05:42:26;;;;;;;;;;;;;;;16.74;84.44;99692.03;1681282;84;21111;-78
2021/08/19 05:44:51;;;;;;;;;;;;;;;16.74;84.62;99690.70;1652267;84;20210;-79
2021/08/19 05:47:17;;;;;;;;;;;;;;;16.86;83.99;99690.93;1682055;84;20325;-79
2021/08/19 05:49:44;;;;;;;;;;;;;;;16.98;83.42;99696.42;1679131;84;20697;-79
2021/08/19 05:52:12;;;;;;;;;;;;;;;16.99;83.52;99700.21;1683499;84;20136;-79
2021/08/19 05:54:37;;;;;;;;;;;;;;;17.10;83.01;99699.27;1649096;84;21502;-79
2021/08/19 05:57:03;;;;;;;;;;;;;;;17.21;82.13;99703.45;1679864;84;20154;-81
2021/08/19 05:59:28;;;;;;;;;;;;;;;17.28;81.96;99697.27;1681014;84;20294;-81
2021/08/19 06:01:55;;;;;;;;;;;;;;;17.45;81.21;99701.09;1661750;84;20468;-80
2021/08/19 06:04:21;;;;;;;;;;;;;;;17.42;80.88;99693.51;1675146;84;20227;-82
2021/08/19 06:06:46;;;;;;;;;;;;;;;17.47;79.91;99696.35;1677478;84;21182;-80
2021/08/19 06:09:13;;;;;;;;;;;;;;;17.39;79.91;99701.94;1681302;84;20151;-80
2021/08/19 06:11:38;;;;;;;;;;;;;;;17.46;80.06;99699.23;1677426;83;20156;-81
2021/08/19 06:14:06;;;;;;;;;;;;;;;17.45;79.70;99703.77;1679888;84;20759;-80
2021/08/19 06:16:31;;;;;;;;;;;;;;;17.58;79.51;99693.00;1677757;83;20228;-83
2021/08/19 06:18:57;;;;;;;;;;;;;;;17.64;78.85;99693.20;1680414;83;21289;-84
2021/08/19 06:21:23;;;;;;;;;;;;;;;17.74;78.99;99689.53;1679966;83;20247;-82
2021/08/19 06:23:50;;;;;;;;;;;;;;;17.93;78.55;99687.30;1679741;83;20277;-82
2021/08/19 06:26:17;;;;;;;;;;;;;;;17.99;77.78;99685.62;1679881;83;20187;-80
2021/08/19 06:28:43;;;;;;;;;;;;;;;18.03;77.46;99684.66;1686353;83;20184;-79
2021/08/19 06:31:09;;;;;;;;;;;;;;;18.13;77.26;99684.98;1687031;83;21005;-82
2021/08/19 06:33:34;;;;;;;;;;;;;;;18.18;76.92;99685.17;1682359;83;20799;-80
2021/08/19 06:36:00;;;;;;;;;;;;;;;18.14;76.63;99690.63;1681055;84;20170;-80
2021/08/19 06:38:25;;;;;;;;;;;;;;;18.11;76.92;99691.88;1683271;83;21387;-82
2021/08/19 06:40:52;;;;;;;;;;;;;;;18.16;76.67;99684.55;1684015;83;20145;-82
2021/08/19 06:43:19;;;;;;;;;;;;;;;18.30;75.85;99681.25;1683196;83;21131;-85
2021/08/19 06:45:46;;;;;;;;;;;;;;;18.34;75.34;99682.98;1683032;83;20667;-83
2021/08/19 06:48:12;;;;;;;;;;;;;;;18.51;74.99;99685.41;1683337;83;20154;-83
2021/08/19 06:50:39;;;;;;;;;;;;;;;18.64;74.71;99682.61;1675050;83;20520;-84
2021/08/19 06:53:05;;;;;;;;;;;;;;;18.77;73.57;99683.52;1656183;85;20490;-80
2021/08/19 06:55:30;;;;;;;;;;;;;;;19.04;73.59;99683.26;1676252;83;21240;-81
2021/08/19 06:57:56;;;;;;;;;;;;;;;19.24;73.12;99679.82;1678547;83;21275;-81
2021/08/19 07:00:22;;;;;;;;;;;;;;;19.24;71.67;99691.87;1676583;84;20146;-80
2021/08/19 07:02:50;;;;;;;;;;;;;;;19.18;71.10;99688.75;1664023;84;20328;-81
2021/08/19 07:05:16;;;;;;;;;;;;;;;19.28;70.61;99689.55;1676071;83;20208;-81
2021/08/19 07:07:43;;;;;;;;;;;;;;;19.38;70.57;99685.30;1677752;83;21095;-80
2021/08/19 07:10:10;;;;;;;;;;;;;;;19.41;70.66;99688.59;1679635;83;20118;-81
2021/08/19 07:12:36;;;;;;;;;;;;;;;19.49;70.17;99689.08;1687100;83;20793;-82
2021/08/19 07:15:03;;;;;;;;;;;;;;;19.50;70.11;99683.22;1677531;84;20399;-79
2021/08/19 07:17:28;;;;;;;;;;;;;;;19.37;69.92;99681.01;1680302;84;20123;-79
2021/08/19 07:19:56;;;;;;;;;;;;;;;19.45;70.27;99683.05;1657570;85;21882;-81
2021/08/19 07:22:21;;;;;;;;;;;;;;;19.50;69.75;99687.23;1682203;84;20154;-80
2021/08/19 07:24:47;;;;;;;;;;;;;;;19.63;68.62;99678.19;1675631;85;20283;-82
2021/08/19 07:27:13;;;;;;;;;;;;;;;19.76;69.00;99675.84;1677783;84;20131;-81
2021/08/19 07:29:38;;;;;;;;;;;;;;;19.84;68.73;99684.92;1670815;84;20460;-82
2021/08/19 07:32:04;;;;;;;;;;;;;;;19.74;69.05;99678.22;1678824;85;21115;-81
2021/08/19 07:34:29;;;;;;;;;;;;;;;19.80;68.63;99685.91;1659743;85;20194;-81
2021/08/19 07:36:55;;;;;;;;;;;;;;;20.00;67.88;99686.95;1655631;85;20150;-86
2021/08/19 07:39:22;;;;;;;;;;;;;;;19.98;68.08;99681.52;1674384;84;20155;-84
2021/08/19 07:41:48;;;;;;;;;;;;;;;19.87;66.82;99679.94;1678139;84;20190;-85
2021/08/19 07:44:14;;;;;;;;;;;;;;;19.93;67.29;99686.22;1672009;83;21166;-84
2021/08/19 07:46:39;;;;;;;;;;;;;;;20.06;67.50;99685.23;1672701;84;20131;-83
2021/08/19 07:49:05;;;;;;;;;;;;;;;20.11;65.80;99687.22;1675088;85;20146;-83
2021/08/19 07:51:31;;;;;;;;;;;;;;;20.24;66.51;99685.14;1675981;84;20192;-82
2021/08/19 07:53:58;;;;;;;;;;;;;;;20.07;65.68;99685.00;1679269;84;20760;-84
2021/08/19 07:56:25;;;;;;;;;;;;;;;20.08;65.77;99688.48;1681418;83;21081;-83
2021/08/19 07:58:53;;;;;;;;;;;;;;;20.02;65.59;99676.81;1675757;85;20139;-83
2021/08/19 08:01:22;;;;;;;;;;;;;;;19.80;66.33;99685.09;1677872;84;20154;-82
2021/08/19 08:03:47;;;;;;;;;;;;;;;19.93;65.96;99701.50;1680516;85;20214;-82
2021/08/19 08:06:18;;;;;;;;;;;;;;;19.88;65.84;99699.50;1675168;84;20163;-84
2021/08/19 08:08:44;;;;;;;;;;;;;;;19.94;65.89;99685.19;1679138;83;21082;-84
2021/08/19 08:11:09;;;;;;;;;;;;;;;20.05;66.52;99688.95;1679869;84;20158;-82
2021/08/19 08:13:35;;;;;;;;;;;;;;;20.17;65.17;99690.32;1680752;83;20227;-84
2021/08/19 08:16:01;;;;;;;;;;;;;;;20.25;65.25;99683.27;1676047;84;20838;-81
2021/08/19 08:18:26;;;;;;;;;;;;;;;20.25;63.93;99689.97;1677196;83;20194;-83
2021/08/19 08:20:54;;;;;;;;;;;;;;;20.42;64.20;99694.94;1680485;83;21160;-83
2021/08/19 08:23:20;;;;;;;;;;;;;;;20.50;64.04;99691.09;1674820;84;21162;-82
2021/08/19 08:25:46;;;;;;;;;;;;;;;20.62;63.67;99696.47;1679853;83;20253;-82
2021/08/19 08:28:26;;;;;;;;;;;;;;;20.60;63.08;99706.59;1678541;84;20106;-82
2021/08/19 08:30:54;;;;;;;;;;;;;;;20.57;63.26;99706.56;1683284;84;20136;-80
2021/08/19 08:33:16;;;;;;;;;;;;;;;20.55;63.48;99690.39;1679690;83;20163;-81
2021/08/19 08:35:42;;;;;;;;;;;;;;;20.69;64.03;99694.50;1684238;82;20175;-81
2021/08/19 08:38:13;;;;;;;;;;;;;;;20.76;64.74;99697.08;1680927;84;20150;-81
2021/08/19 08:40:39;;;;;;;;;;;;;;;20.74;63.87;99704.03;1681279;83;20190;-81
2021/08/19 08:43:05;;;;;;;;;;;;;;;20.88;63.97;99707.79;1677528;84;20257;-83
2021/08/19 08:45:34;;;;;;;;;;;;;;;20.78;63.74;99705.17;1656458;84;21107;-81
2021/08/19 08:47:58;;;;;;;;;;;;;;;20.72;63.78;99707.45;1676101;84;20182;-81
2021/08/19 08:50:25;;;;;;;;;;;;;;;20.80;63.72;99712.48;1649820;84;20152;-81
2021/08/19 08:52:52;;;;;;;;;;;;;;;20.76;63.72;99707.81;1681463;83;20175;-80
2021/08/19 08:55:17;;;;;;;;;;;;;;;20.84;63.67;99699.94;1682516;84;20120;-81
2021/08/19 08:57:43;;;;;;;;;;;;;;;21.08;63.54;99705.53;1677693;83;21097;-80
2021/08/19 09:00:09;;;;;;;;;;;;;;;21.22;63.42;99716.02;1676907;84;20142;-79
2021/08/19 09:02:36;;;;;;;;;;;;;;;21.01;63.66;99701.38;1679531;84;20184;-81
2021/08/19 09:05:22;;;;;;;;;;;;;;;21.05;64.58;99707.88;1678165;83;20263;-79
2021/08/19 09:07:56;;;;;;;;;;;;;;;21.10;63.95;99702.61;1681897;84;20606;-81
2021/08/19 09:10:24;;;;;;;;;;;;;;;21.31;63.75;99712.72;1683584;83;21218;-80
2021/08/19 09:12:52;;;;;;;;;;;;;;;21.42;62.85;99736.58;1645619;85;20454;-82
2021/08/19 09:15:25;;;;;;;;;;;;;;;21.25;63.18;99708.30;1646274;85;20123;-82
2021/08/19 09:17:53;;;;;;;;;;;;;;;21.27;63.63;99712.09;1644083;85;20153;-82
2021/08/19 09:20:31;;;;;;;;;;;;;;;21.29;63.92;99711.34;1623177;85;20221;-83
2021/08/19 09:23:04;;;;;;;;;;;;;;;21.20;63.69;99712.23;1645640;85;21112;-84
2021/08/19 09:25:32;;;;;;;;;;;;;;;21.23;63.10;99712.30;1640249;85;20468;-82
2021/08/19 09:28:23;;;;;;;;;;;;;;;21.15;63.83;99708.11;1640614;85;20212;-83
2021/08/19 09:30:53;;;;;;;;;;;;;;;21.18;64.25;99704.11;1646457;85;20208;-83
2021/08/19 09:33:21;;;;;;;;;;;;;;;21.28;64.29;99712.39;1653440;85;20481;-83
2021/08/19 09:35:49;;;;;;;;;;;;;;;21.39;63.51;99705.36;1644659;85;21161;-83
2021/08/19 09:38:17;;;;;;;;;;;;;;;21.32;62.99;99705.50;1642238;85;20165;-81
2021/08/19 09:40:43;;;;;;;;;;;;;;;21.47;63.01;99701.78;1624797;85;20151;-82
2021/08/19 09:43:11;;;;;;;;;;;;;;;21.35;62.59;99706.37;1637561;85;20184;-83
2021/08/19 09:45:44;;;;;;;;;;;;;;;21.33;61.57;99712.48;1645476;85;20183;-82
2021/08/19 09:48:12;;;;;;;;;;;;;;;21.30;62.55;99708.42;1636830;85;21881;-81
2021/08/19 09:50:40;;;;;;;;;;;;;;;21.32;63.01;99719.73;1649650;85;20191;-82
2021/08/19 09:53:22;;;;;;;;;;;;;;;21.37;62.50;99712.31;1643409;85;20182;-82
2021/08/19 09:55:47;;;;;;;;;;;;;;;21.33;62.79;99705.77;1641192;85;20205;-82
2021/08/19 09:58:16;;;;;;;;;;;;;;;21.35;63.01;99710.40;1640855;85;20158;-82
2021/08/19 10:00:41;;;;;;;;;;;;;;;21.29;63.58;99701.95;1618819;85;21763;-83
2021/08/19 10:03:14;;;;;;;;;;;;;;;21.40;62.91;99693.57;1643088;85;20210;-83
2021/08/19 10:05:39;;;;;;;;;;;;;;;21.67;63.04;99707.27;1643262;85;20175;-84
2021/08/19 10:08:08;;;;;;;;;;;;;;;21.53;61.64;99705.92;1648401;85;20763;-82
2021/08/19 10:10:34;;;;;;;;;;;;;;;21.45;61.94;99710.58;1638005;85;20194;-81
2021/08/19 10:13:01;;;;;;;;;;;;;;;21.58;61.13;99722.14;1643581;85;20222;-82
2021/08/19 10:15:26;;;;;;;;;;;;;;;21.47;60.92;99701.78;1650429;84;20224;-83
2021/08/19 10:17:57;;;;;;;;;;;;;;;21.46;61.11;99704.70;1648481;86;20176;-82
2021/08/19 10:20:28;;;;;;;;;;;;;;;21.45;61.22;99703.86;1647667;86;20238;-83
2021/08/19 10:22:56;;;;;;;;;;;;;;;21.53;61.72;99711.30;1627761;84;37154;-83
2021/08/19 10:25:24;;;;;;;;;;;;;;;21.56;61.09;99713.51;1643129;86;21061;-82
2021/08/19 10:28:10;;;;;;;;;;;;;;;21.43;61.74;99705.18;1647653;84;20194;-81
2021/08/19 10:30:39;;;;;;;;;;;;;;;21.41;62.40;99717.50;1655550;84;20358;-81
2021/08/19 10:33:05;;;;;;;;;;;;;;;21.46;62.49;99710.08;1649409;85;20224;-81
2021/08/19 10:35:31;;;;;;;;;;;;;;;21.37;62.23;99708.28;1651396;84;20124;-82
2021/08/19 10:38:00;;;;;;;;;;;;;;;21.43;62.34;99710.02;1652326;85;21177;-80
2021/08/19 10:40:33;;;;;;;;;;;;;;;21.39;62.88;99718.25;1651063;85;20227;-81
2021/08/19 10:43:04;;;;;;;;;;;;;;;21.35;63.44;99718.45;1649953;86;20188;-81
2021/08/19 10:45:33;;;;;;;;;;;;;;;21.29;63.61;99724.24;1650272;85;20967;-81
2021/08/19 10:48:07;;;;;;;;;;;;;;;21.36;63.63;99711.20;1648995;84;20501;-80
2021/08/19 10:50:39;;;;;;;;;;;;;;;21.59;63.16;99703.63;1642724;86;20544;-81
2021/08/19 10:53:21;;;;;;;;;;;;;;;21.75;62.82;99716.30;1656025;85;20193;-80
2021/08/19 10:55:55;;;;;;;;;;;;;;;21.90;63.02;99701.50;1646038;86;20164;-79
2021/08/19 10:58:23;;;;;;;;;;;;;;;22.03;62.57;99705.20;1646661;85;20244;-79
2021/08/19 11:00:50;;;;;;;;;;;;;;;22.02;61.88;99706.29;1647612;86;20529;-80
2021/08/19 11:03:39;;;;;;;;;;;;;;;21.92;62.35;99707.44;1652216;84;21107;-81
2021/08/19 11:06:07;;;;;;;;;;;;;;;21.71;62.18;99700.36;1655968;85;20286;-82
2021/08/19 11:08:49;;;;;;;;;;;;;;;21.62;62.98;99712.55;1656594;86;20140;-81
2021/08/19 11:11:26;;;;;;;;;;;;;;;21.56;63.03;99708.94;1649491;85;20154;-79
2021/08/19 11:13:59;;;;;;;;;;;;;;;21.54;63.48;99726.37;1659108;83;20151;-81
2021/08/19 11:16:25;;;;;;;;;;;;;;;21.47;62.64;99713.03;1678553;83;21237;-80
2021/08/19 11:18:51;;;;;;;;;;;;;;;21.34;63.47;99714.94;1681886;84;20649;-81
2021/08/19 11:21:18;;;;;;;;;;;;;;;21.44;63.17;99717.03;1687500;83;20592;-81
2021/08/19 11:23:44;;;;;;;;;;;;;;;21.53;63.35;99712.64;1681713;83;20325;-81
2021/08/19 11:26:17;;;;;;;;;;;;;;;21.53;63.80;99718.02;1681531;83;20174;-82
2021/08/19 11:28:48;;;;;;;;;;;;;;;21.57;63.50;99721.87;1680108;84;21256;-81
2021/08/19 11:31:20;;;;;;;;;;;;;;;21.60;64.20;99721.39;1681888;83;20140;-80
2021/08/19 11:33:45;;;;;;;;;;;;;;;21.64;64.37;99729.23;1676271;83;20232;-79
2021/08/19 11:36:11;;;;;;;;;;;;;;;21.62;65.08;99717.92;1681276;84;20177;-82
2021/08/19 11:38:39;;;;;;;;;;;;;;;21.53;64.62;99712.64;1660951;83;20166;-79
2021/08/19 11:41:14;;;;;;;;;;;;;;;21.40;64.07;99721.23;1678918;84;20176;-78
2021/08/19 11:43:42;;;;;;;;;;;;;;;21.41;64.40;99718.84;1682499;83;20163;-80
2021/08/19 11:46:27;;;;;;;;;;;;;;;21.54;64.55;99717.78;1679498;83;20269;-79
2021/08/19 11:49:14;;;;;;;;;;;;;;;21.44;64.08;99721.56;1682383;83;20248;-80
2021/08/19 11:51:42;;;;;;;;;;;;;;;21.37;63.25;99722.25;1683186;84;20134;-81
2021/08/19 11:54:11;;;;;;;;;;;;;;;21.34;63.55;99720.84;1680240;83;21049;-81
2021/08/19 11:56:38;;;;;;;;;;;;;;;21.36;64.01;99717.38;1677736;84;20204;-82
2021/08/19 11:59:13;;;;;;;;;;;;;;;21.50;63.78;99721.48;1682380;83;20171;-81
2021/08/19 12:01:50;;;;;;;;;;;;;;;21.42;62.97;99719.66;1681577;83;20124;-80
2021/08/19 12:04:15;;;;;;;;;;;;;;;21.27;62.94;99722.83;1678466;83;20186;-81
2021/08/19 12:06:41;;;;;;;;;;;;;;;21.43;62.78;99720.77;1678223;83;21877;-81
2021/08/19 12:09:08;;;;;;;;;;;;;;;21.48;62.91;99722.19;1684711;83;20134;-81
2021/08/19 12:11:43;;;;;;;;;;;;;;;21.46;62.21;99721.63;1652292;84;20209;-80
2021/08/19 12:14:10;;;;;;;;;;;;;;;21.60;61.99;99711.98;1663489;85;20136;-79
2021/08/19 12:16:40;;;;;;;;;;;;;;;21.67;61.76;99708.09;1674102;84;20198;-82
2021/08/19 12:19:20;;;;;;;;;;;;;;;21.76;62.12;99708.51;1679186;83;21070;-82
2021/08/19 12:21:56;;;;;;;;;;;;;;;21.73;62.46;99717.05;1679261;84;20131;-81
2021/08/19 12:24:38;;;;;;;;;;;;;;;21.71;62.05;99719.17;1684423;84;20204;-80
2021/08/19 12:27:19;;;;;;;;;;;;;;;21.68;61.91;99727.18;1678430;85;20211;-79
2021/08/19 12:29:51;;;;;;;;;;;;;;;21.57;61.87;99724.55;1676331;84;20475;-81
2021/08/19 12:32:30;;;;;;;;;;;;;;;21.38;61.83;99726.55;1679845;84;21257;-81
2021/08/19 12:35:11;;;;;;;;;;;;;;;21.29;62.77;99732.84;1680949;85;20163;-79
2021/08/19 12:37:43;;;;;;;;;;;;;;;21.20;61.98;99730.23;1663558;85;20199;-79
2021/08/19 12:40:12;;;;;;;;;;;;;;;21.09;62.69;99739.39;1673255;85;20696;-81
2021/08/19 12:42:38;;;;;;;;;;;;;;;21.08;62.88;99738.28;1677304;84;20223;-79
2021/08/19 12:45:17;;;;;;;;;;;;;;;21.00;63.43;99739.47;1659113;85;21890;-79
2021/08/19 12:47:49;;;;;;;;;;;;;;;20.90;63.63;99743.28;1678180;85;20139;-80
2021/08/19 12:50:21;;;;;;;;;;;;;;;20.78;63.82;99746.77;1677921;85;20083;-78